Lang, Canada
Current Conditions -  °F | °C
As of 2:00 AM on Sunday 26 Oct 2014 (Local Time) from CYQR Reporting Station
Few Clouds Few Clouds  
Wind Chill: 39°   Ceiling: Unl
Heat Index: 46°   Visibility: 15mi
Dew Point: 30°   Wind: 22mph
Humidity: 53%   Direction: 110°ESE
Pressure: 29.64"   Gusts: 28mph
Location:  49.92°N, 104.37°W
Report Text: CYQR 260800Z 11019G24KT 15SM FEW210 08/M01 A2964 RMK CI1 SLP049
Loading
Personal Weather Stations






























Interactive Weather Map
Tropical Storm Tracking
New forecast layout! Learn more

10-Day Weather Forecast

Advertisements
Track Severe Weather on mobile